createdAt,value
2022-11-10T22:45:03.889Z,623.10
2022-11-10T22:46:03.770Z,623.78
2022-11-10T22:47:03.737Z,623.49
2022-11-10T22:48:03.733Z,623.41
2022-11-10T22:49:03.726Z,623.35
2022-11-10T22:50:03.727Z,623.23
2022-11-10T22:51:03.700Z,623.14
2022-11-10T22:52:03.695Z,623.13
2022-11-10T22:53:03.684Z,623.13
2022-11-10T22:54:03.684Z,623.12
2022-11-10T22:55:03.656Z,623.07
2022-11-10T22:56:03.643Z,623.04
2022-11-10T22:57:03.643Z,623.02
2022-11-10T22:58:03.636Z,622.99
2022-11-10T22:59:03.605Z,622.98
2022-11-10T23:00:03.611Z,622.97
2022-11-10T23:01:03.922Z,622.95
2022-11-10T23:02:03.667Z,622.94
2022-11-10T23:03:03.580Z,622.94
2022-11-10T23:04:03.555Z,622.93
2022-11-10T23:05:03.541Z,622.93
2022-11-10T23:06:03.534Z,622.91
2022-11-10T23:07:03.603Z,622.92
2022-11-10T23:08:03.535Z,622.91
2022-11-10T23:09:03.494Z,622.90
2022-11-10T23:10:03.498Z,622.91
2022-11-10T23:11:03.484Z,622.89
2022-11-10T23:12:03.467Z,622.90
2022-11-10T23:13:03.463Z,622.91
2022-11-10T23:14:03.453Z,622.90
2022-11-10T23:15:03.463Z,622.90
2022-11-10T23:16:03.456Z,622.89
2022-11-10T23:17:03.523Z,622.88
2022-11-10T23:18:06.630Z,622.89
2022-11-10T23:19:03.385Z,622.91
2022-11-10T23:20:03.379Z,622.90
2022-11-10T23:21:03.378Z,622.90
2022-11-10T23:22:03.382Z,622.89
2022-11-10T23:23:03.344Z,622.90
2022-11-10T23:24:03.363Z,622.90
2022-11-10T23:25:03.320Z,622.91
2022-11-10T23:26:03.314Z,622.90
2022-11-10T23:27:03.303Z,622.90
2022-11-10T23:28:03.304Z,622.91
2022-11-10T23:29:03.325Z,622.91
2022-11-10T23:30:03.284Z,622.91
2022-11-10T23:31:03.256Z,622.91
2022-11-10T23:32:03.258Z,622.92
2022-11-10T23:33:03.351Z,622.93
2022-11-10T23:34:03.230Z,622.92
2022-11-10T23:35:03.215Z,622.93
2022-11-10T23:36:03.221Z,622.93
2022-11-10T23:37:03.194Z,622.94
2022-11-10T23:38:03.216Z,622.94
2022-11-10T23:39:03.212Z,622.94
2022-11-10T23:40:03.186Z,622.95
2022-11-10T23:41:03.147Z,622.96
2022-11-10T23:42:03.208Z,622.98
2022-11-10T23:43:03.142Z,622.94
2022-11-10T23:44:03.142Z,622.96
2022-11-10T23:45:03.105Z,622.95
2022-11-10T23:46:07.419Z,622.95
2022-11-10T23:47:03.083Z,622.94
2022-11-10T23:48:06.669Z,622.95
2022-11-10T23:49:03.178Z,622.97
2022-11-10T23:50:03.054Z,622.95
2022-11-10T23:51:03.065Z,622.95
2022-11-10T23:52:03.034Z,622.98
2022-11-10T23:53:03.023Z,622.97
2022-11-10T23:54:03.012Z,622.97
2022-11-10T23:55:02.996Z,622.98
2022-11-10T23:56:02.998Z,622.97
2022-11-10T23:57:02.973Z,623.00
2022-11-10T23:58:03.571Z,623.00
2022-11-10T23:59:02.952Z,623.01
